»·PEaware :: PDT4715 KSEA-KACV

PDT4715 :: KSEA-KACV

FLIGHT INFORMATION

Flight Status: Arrived
Operator:
USAir Express
More flights by this operator :: More flights under this callsign
Pilot: Anonymous 24416 (24416)
Aircraft: EMBRAER ERJ-145
(E145)
More flights by this aircraft type
Origin: KSEA Seattle-Tacoma Intl
United States
Destination: KACV Arcata
United States
More flights between these airports :: More routes between these airports
Route: HAROB6 FEPOT CVO
File this flight plan on PilotEdge
Remarks:
Altitude:
(Current/Filed)
27,000ft
Speed:
(Current/Filed)
290kts
Departed: 14-Jan-21 05:50 PM
Arrived: 14-Jan-21 07:08 PM
Distance/Time
Traveled:
396nm/1:17
Distance/Time
To Go:
Arrived

Flight Plot

Page will automatically refresh every two minutes.

Flight plan parsing failed; only flown route is shown


Map Options




Map Legend


Flown Route
Filed Route
Departure Airport
Arrival Airport
Navaid (VOR, NDB)
Fix

Horizontal Profiles

Position Reports

Time Latitude Longitude Heading Altitude Ground
Speed
14-Jan-21 17:21 47.438914 -122.298271 87 369ft 0kts
14-Jan-21 17:22 47.438914 -122.298271 87 369ft 0kts
14-Jan-21 17:23 47.438914 -122.298271 87 369ft 0kts
14-Jan-21 17:24 47.438914 -122.298271 87 369ft 0kts
14-Jan-21 17:25 47.438914 -122.298271 87 369ft 0kts
14-Jan-21 17:26 47.438914 -122.298271 87 369ft 0kts
14-Jan-21 17:27 47.438914 -122.298271 87 369ft 0kts
14-Jan-21 17:28 47.438914 -122.298271 87 369ft 0kts
14-Jan-21 17:29 47.438914 -122.298271 87 369ft 0kts
14-Jan-21 17:30 47.438914 -122.298271 87 369ft 0kts
14-Jan-21 17:31 47.438914 -122.298271 87 369ft 0kts
14-Jan-21 17:32 47.438914 -122.298271 87 369ft 0kts
14-Jan-21 17:33 47.438914 -122.298271 87 369ft 0kts
14-Jan-21 17:34 47.438900 -122.298683 87 370ft 2kts
14-Jan-21 17:35 47.438614 -122.299160 3 370ft 0kts
14-Jan-21 17:36 47.438614 -122.299160 3 370ft 0kts
14-Jan-21 17:37 47.438614 -122.299160 3 370ft 0kts
14-Jan-21 17:38 47.438614 -122.299160 3 370ft 0kts
14-Jan-21 17:39 47.439857 -122.300224 316 376ft 7kts
14-Jan-21 17:40 47.440062 -122.302942 240 377ft 12kts
14-Jan-21 17:41 47.440917 -122.306355 0 377ft 10kts
14-Jan-21 17:42 47.445349 -122.306308 0 391ft 15kts
14-Jan-21 17:43 47.449156 -122.306256 0 403ft 18kts
14-Jan-21 17:44 47.452506 -122.306218 0 419ft 12kts
14-Jan-21 17:45 47.456662 -122.306184 0 437ft 14kts
14-Jan-21 17:46 47.461234 -122.306144 0 434ft 14kts
14-Jan-21 17:47 47.463587 -122.306278 324 416ft 0kts
14-Jan-21 17:48 47.463706 -122.306451 311 414ft 7kts
14-Jan-21 17:49 47.458146 -122.307811 181 434ft 99kts
14-Jan-21 17:50 47.409193 -122.308256 181 2408ft 216kts
14-Jan-21 17:51 47.343046 -122.310693 189 5187ft 259kts
14-Jan-21 17:52 47.311740 -122.392115 261 7986ft 242kts
14-Jan-21 17:53 47.308272 -122.490194 269 10373ft 241kts
14-Jan-21 17:54 47.311227 -122.598445 269 12007ft 286kts
14-Jan-21 17:55 47.314458 -122.717592 269 13579ft 294kts
14-Jan-21 17:56 47.298498 -122.834652 248 16388ft 298kts
14-Jan-21 17:57 47.268452 -122.947318 247 19177ft 294kts
14-Jan-21 17:58 47.229497 -123.054561 219 20891ft 316kts
14-Jan-21 17:59 47.157294 -123.135284 218 22406ft 336kts
14-Jan-21 18:00 47.078362 -123.214733 199 23344ft 355kts
14-Jan-21 18:01 46.979576 -123.221884 188 24555ft 359kts
14-Jan-21 18:02 46.879579 -123.224961 188 26209ft 363kts
14-Jan-21 18:03 46.778392 -123.228034 188 27361ft 369kts
14-Jan-21 18:04 46.672600 -123.231210 188 27360ft 391kts
14-Jan-21 18:05 46.562058 -123.234506 187 27359ft 407kts
14-Jan-21 18:06 46.449540 -123.237810 187 27351ft 399kts
14-Jan-21 18:07 46.340260 -123.241052 188 27360ft 390kts
14-Jan-21 18:08 46.232270 -123.244236 188 27377ft 389kts
14-Jan-21 18:09 46.124088 -123.247413 188 27378ft 388kts
14-Jan-21 18:10 46.016345 -123.250568 188 27377ft 387kts
14-Jan-21 18:11 45.906870 -123.253771 187 27380ft 401kts
14-Jan-21 18:12 45.794711 -123.256993 187 27402ft 402kts
14-Jan-21 18:13 45.683390 -123.260223 187 27410ft 398kts
14-Jan-21 18:14 45.573630 -123.263379 188 27408ft 394kts
14-Jan-21 18:15 45.464369 -123.266513 188 27404ft 391kts
14-Jan-21 18:16 45.355809 -123.269622 188 27400ft 389kts
14-Jan-21 18:17 45.247907 -123.272707 187 27400ft 392kts
14-Jan-21 18:18 45.137638 -123.275825 187 27398ft 401kts
14-Jan-21 18:19 45.025132 -123.279009 187 27396ft 409kts
14-Jan-21 18:20 44.910560 -123.282214 187 27398ft 413kts
14-Jan-21 18:21 44.796738 -123.285387 187 27418ft 405kts
14-Jan-21 18:22 44.683789 -123.288556 187 27427ft 410kts
14-Jan-21 18:23 44.569151 -123.291736 187 27429ft 415kts
14-Jan-21 18:24 44.456260 -123.304125 195 27427ft 399kts
14-Jan-21 18:25 44.347841 -123.330767 195 27424ft 393kts
14-Jan-21 18:26 44.240997 -123.356791 195 27425ft 390kts
14-Jan-21 18:27 44.132949 -123.383015 195 27425ft 397kts
14-Jan-21 18:28 44.023481 -123.409472 195 27423ft 401kts
14-Jan-21 18:29 43.913078 -123.436056 195 27423ft 405kts
14-Jan-21 18:30 43.801319 -123.462860 195 27426ft 407kts
14-Jan-21 18:31 43.691146 -123.489183 195 27417ft 398kts
14-Jan-21 18:32 43.582533 -123.515058 195 27419ft 398kts
14-Jan-21 18:33 43.472029 -123.541279 195 27418ft 409kts
14-Jan-21 18:34 43.360632 -123.567588 195 27413ft 402kts
14-Jan-21 18:35 43.250207 -123.593606 195 27414ft 405kts
14-Jan-21 18:36 43.138684 -123.619763 195 27413ft 408kts
14-Jan-21 18:38 43.027016 -123.645854 195 27408ft 402kts
14-Jan-21 18:39 42.917637 -123.671354 194 27412ft 398kts
14-Jan-21 18:40 42.810693 -123.696151 194 25764ft 384kts
14-Jan-21 18:41 42.707639 -123.719986 193 23711ft 368kts
14-Jan-21 18:42 42.608858 -123.742756 193 21220ft 351kts
14-Jan-21 18:43 42.520000 -123.763179 193 18143ft 318kts
14-Jan-21 18:44 42.434494 -123.782771 193 15984ft 309kts
14-Jan-21 18:45 42.349881 -123.802105 193 14637ft 308kts
14-Jan-21 18:46 42.265107 -123.821427 192 13545ft 311kts
14-Jan-21 18:47 42.179524 -123.841908 198 12443ft 309kts
14-Jan-21 18:48 42.100637 -123.872672 198 11323ft 293kts
14-Jan-21 18:49 42.026669 -123.901947 197 10269ft 262kts
14-Jan-21 18:50 41.957219 -123.929405 197 9251ft 259kts
14-Jan-21 18:51 41.888368 -123.956556 196 8236ft 257kts
14-Jan-21 18:52 41.820128 -123.983381 196 8011ft 255kts
14-Jan-21 18:52 41.763476 -124.005624 196 8009ft 252kts
14-Jan-21 18:53 41.696441 -124.031894 196 8009ft 249kts
14-Jan-21 18:55 41.619091 -124.062137 196 8009ft 247kts
14-Jan-21 18:56 41.553064 -124.087895 196 8009ft 246kts
14-Jan-21 18:56 41.498240 -124.109238 196 8008ft 246kts
14-Jan-21 18:57 41.432662 -124.134722 196 8008ft 245kts
14-Jan-21 18:58 41.367430 -124.160040 194 7989ft 246kts
14-Jan-21 18:59 41.301361 -124.185549 200 7380ft 233kts
14-Jan-21 19:00 41.243114 -124.208051 200 6487ft 203kts
14-Jan-21 19:01 41.190706 -124.228270 200 6026ft 195kts
14-Jan-21 19:02 41.138716 -124.217659 156 5565ft 205kts
14-Jan-21 19:03 41.095716 -124.188377 155 4456ft 159kts
14-Jan-21 19:04 41.056566 -124.161669 153 2650ft 157kts
14-Jan-21 19:05 41.020193 -124.136881 152 1192ft 146kts
14-Jan-21 19:06 40.984626 -124.112691 152 256ft 140kts
14-Jan-21 19:07 40.970539 -124.103487 226 228ft 5kts
14-Jan-21 19:08 40.970768 -124.104817 265 228ft 3kts
14-Jan-21 19:09 40.970956 -124.105803 295 228ft 0kts
14-Jan-21 19:10 40.970956 -124.105802 295 228ft 0kts
14-Jan-21 19:11 40.970956 -124.105802 295 228ft 0kts

Navigation Log

Ident Type
Flight plan parsing failed, navigation log unavailable